Aérodrome :
LOGIN :

S'inscrire | Disclaimer

   EN    FR    IT 

 










Légende :    VFR   VFR Marginal   IFR   IFR Intensif   IFR Très Intensif
Visi : 
Plafond : 
>= 8 km
>= 3000ft
5 à 8 km
1000 à 3000 ft
1500m à 5 km
500 à 1000 ft
800 à 1500m
200 à 500 ft
< 800m
< 200 ft
Symboles :   Orages  Brouillard  Fortes neiges  Fortes précipitations  Vent > 20 kt
SIGMETs :   Divers  Orages  Givrage  Turbulence  Onde Orograph.  Cendres Volcan.






- Altitude de l'aérodrome : 74 ft
- Code IATA : NDZ


ETMN - Cuxhaven Nordholz Sea AB

DERNIER METAR :
  • 270620Z 34005KT 9999 FEW015 SCT078 14/10 Q1034 BLU+BLU+

METARs EXPIRÉS :
  • 270520Z 31002KT 9999 FEW004 SCT080 12/11 Q1034 BLU+BLU+
  • 270442Z 30001KT 8000 FEW010 SCT080 11/10 Q1034 BLU+BLU+
  • 270420Z VRB01KT 5000 VCFG BR FEW003 BKN085 09/09 Q1034 WHT BLU TEMPO AMB
  • 270356Z 30001KT 1200 BCFG BR FEW001 BKN080 08/08 Q1034 AMB AMB BECMG BLU

TAF COR TAF ETMN
Valide du 27 à 05h jusqu'au 27 à 14h UTC


270443Z 2705/2714 VRB03KT 9999 NSW SCT080
BECMG 2708/2710 30010KT 6000 NSW BKN003 BKN040



MET'MAP, la Météo Aéronautique d'un coup d'oeil ! - Copyright ORBIFLY Décembre 2007 - Disclaimer

ORBIFLY MET'MAP TEAM :

Programmation & Développement : Alexandra Zaïnal
Sur une idée originale de : Baudouin d'Aumeries
Assistance à la programmation : Marc-Olivier Méhu
Soutien technique & logistique : Manuel Goepfert

Contact : metmap@orbifly.com




SOURCES & CREDITS :

   NOAA